createdAt,value
2017-10-17T00:00:01.666Z,0
2017-10-17T00:01:23.848Z,0
2017-10-17T00:02:46.124Z,0
2017-10-17T00:04:08.353Z,0
2017-10-17T00:05:30.542Z,0
2017-10-17T00:06:52.064Z,0
2017-10-17T00:08:14.586Z,0
2017-10-17T00:09:36.778Z,0
2017-10-17T00:10:58.636Z,0
2017-10-17T00:12:20.821Z,0
2017-10-17T00:13:42.996Z,0
2017-10-17T00:15:04.853Z,0
2017-10-17T00:16:27.062Z,0
2017-10-17T00:17:48.581Z,0
2017-10-17T00:19:11.093Z,0
2017-10-17T00:20:32.958Z,0
2017-10-17T00:21:54.486Z,0
2017-10-17T00:23:15.993Z,0
2017-10-17T00:24:37.830Z,0
2017-10-17T00:25:59.333Z,0
2017-10-17T00:27:21.513Z,0
2017-10-17T00:28:43.354Z,0
2017-10-17T00:30:05.872Z,0
2017-10-17T00:31:28.060Z,0
2017-10-17T00:32:49.263Z,0
2017-10-17T00:34:11.132Z,0
2017-10-17T00:35:32.978Z,0
2017-10-17T00:36:54.581Z,0
2017-10-17T00:38:16.783Z,0
2017-10-17T00:39:38.688Z,0
2017-10-17T00:41:00.203Z,0
2017-10-17T00:42:22.713Z,0
2017-10-17T00:43:44.268Z,0
2017-10-17T00:45:06.133Z,0
2017-10-17T00:46:27.975Z,0
2017-10-17T00:47:49.820Z,0
2017-10-17T00:49:12.049Z,0
2017-10-17T00:50:33.565Z,0
2017-10-17T00:51:55.084Z,0
2017-10-17T00:53:17.256Z,0
2017-10-17T00:54:39.495Z,0
2017-10-17T00:56:01.011Z,0
2017-10-17T00:57:22.848Z,0
2017-10-17T00:58:45.373Z,0
2017-10-17T01:00:07.562Z,0
2017-10-17T01:01:29.407Z,0
2017-10-17T01:02:51.264Z,0
2017-10-17T01:04:13.091Z,0
2017-10-17T01:05:35.276Z,0
2017-10-17T01:06:57.452Z,0
2017-10-17T01:08:19.641Z,0
2017-10-17T01:09:41.814Z,0
2017-10-17T01:11:04.042Z,0
2017-10-17T01:12:26.233Z,0
2017-10-17T01:13:47.762Z,0
2017-10-17T01:15:09.614Z,0
2017-10-17T01:16:31.513Z,0
2017-10-17T01:17:53.805Z,0
2017-10-17T01:19:15.333Z,0
2017-10-17T01:20:36.850Z,0
2017-10-17T01:21:59.031Z,0
2017-10-17T01:23:21.210Z,0
2017-10-17T01:24:42.721Z,0
2017-10-17T01:26:04.314Z,0
2017-10-17T01:27:26.825Z,0
2017-10-17T01:28:49.314Z,0
2017-10-17T01:30:11.513Z,0
2017-10-17T01:31:33.334Z,0
2017-10-17T01:32:55.584Z,0
2017-10-17T01:34:17.490Z,0
2017-10-17T01:35:38.681Z,0
2017-10-17T01:37:00.854Z,0
2017-10-17T01:38:22.701Z,0
2017-10-17T01:39:44.550Z,0
2017-10-17T01:41:06.404Z,0
2017-10-17T01:42:28.590Z,0
2017-10-17T01:43:49.768Z,0
2017-10-17T01:45:11.304Z,0
2017-10-17T01:46:32.823Z,0
2017-10-17T01:47:54.664Z,0
2017-10-17T01:49:16.824Z,0
2017-10-17T01:50:38.657Z,0
2017-10-17T01:52:01.150Z,0
2017-10-17T01:53:23.345Z,0
2017-10-17T01:54:45.105Z,0
2017-10-17T01:56:07.083Z,0
2017-10-17T01:57:28.934Z,0
2017-10-17T01:58:51.104Z,0
2017-10-17T02:00:13.372Z,0
2017-10-17T02:01:35.603Z,0
2017-10-17T02:02:57.778Z,0
2017-10-17T02:04:19.803Z,0
2017-10-17T02:05:41.002Z,0
2017-10-17T02:07:03.526Z,0
2017-10-17T02:08:25.742Z,0
2017-10-17T02:09:47.937Z,0
2017-10-17T02:11:09.800Z,0
2017-10-17T02:12:31.643Z,0
2017-10-17T02:13:53.568Z,0
2017-10-17T02:15:15.395Z,0
2017-10-17T02:16:37.020Z,0
2017-10-17T02:17:58.636Z,0
2017-10-17T02:19:21.153Z,0
2017-10-17T02:20:42.722Z,0
2017-10-17T02:22:04.899Z,0
2017-10-17T02:23:27.091Z,0
2017-10-17T02:24:48.930Z,0
2017-10-17T02:26:11.110Z,0
2017-10-17T02:27:33.669Z,0
2017-10-17T02:28:55.908Z,0
2017-10-17T02:30:17.767Z,0
2017-10-17T02:31:40.029Z,0
2017-10-17T02:33:02.214Z,0
2017-10-17T02:34:23.753Z,0
2017-10-17T02:35:46.359Z,0
2017-10-17T02:37:08.543Z,0
2017-10-17T02:38:30.396Z,0
2017-10-17T02:39:51.904Z,0
2017-10-17T02:41:13.427Z,0
2017-10-17T02:42:35.283Z,0
2017-10-17T02:43:57.469Z,0
2017-10-17T02:45:19.788Z,0
2017-10-17T02:46:41.694Z,0
2017-10-17T02:48:03.944Z,0
2017-10-17T02:49:26.049Z,0
2017-10-17T02:50:48.222Z,0
2017-10-17T02:52:10.723Z,0
2017-10-17T02:53:32.560Z,0
2017-10-17T02:54:53.780Z,0
2017-10-17T02:56:15.965Z,0
2017-10-17T02:57:37.905Z,0
2017-10-17T02:58:59.758Z,0
2017-10-17T03:00:22.581Z,0
2017-10-17T03:01:44.434Z,0
2017-10-17T03:03:05.966Z,0
2017-10-17T03:04:28.489Z,0
2017-10-17T03:05:50.436Z,0
2017-10-17T03:07:11.964Z,0
2017-10-17T03:08:33.825Z,0
2017-10-17T03:09:55.694Z,0
2017-10-17T03:11:17.225Z,0
2017-10-17T03:12:39.751Z,0
2017-10-17T03:14:01.265Z,0
2017-10-17T03:15:23.155Z,0
2017-10-17T03:16:45.667Z,0
2017-10-17T03:18:07.531Z,0
2017-10-17T03:19:29.043Z,0
2017-10-17T03:20:51.226Z,0
2017-10-17T03:22:13.071Z,0
2017-10-17T03:23:34.954Z,0
2017-10-17T03:24:56.454Z,0
2017-10-17T03:26:18.634Z,0
2017-10-17T03:27:41.095Z,0
2017-10-17T03:29:02.951Z,0
2017-10-17T03:30:25.175Z,0
2017-10-17T03:31:47.094Z,0
2017-10-17T03:33:08.932Z,0
2017-10-17T03:34:30.769Z,0
2017-10-17T03:35:53.306Z,0
2017-10-17T03:37:15.508Z,0
2017-10-17T03:38:37.685Z,0
2017-10-17T03:39:59.887Z,0
2017-10-17T03:41:22.413Z,0
2017-10-17T03:42:44.615Z,0
2017-10-17T03:44:06.514Z,0
2017-10-17T03:45:28.028Z,0
2017-10-17T03:46:49.875Z,0
2017-10-17T03:48:11.743Z,0
2017-10-17T03:49:34.361Z,0
2017-10-17T03:50:56.221Z,0
2017-10-17T03:52:18.104Z,0
2017-10-17T03:53:39.961Z,0
2017-10-17T03:55:02.144Z,0
2017-10-17T03:56:23.656Z,0
2017-10-17T03:57:44.845Z,0
2017-10-17T03:59:07.203Z,0
2017-10-17T04:00:29.051Z,0
2017-10-17T04:01:51.564Z,0
2017-10-17T04:03:13.729Z,0
2017-10-17T04:04:35.584Z,0
2017-10-17T04:05:57.755Z,0
2017-10-17T04:07:19.669Z,0
2017-10-17T04:08:41.835Z,0
2017-10-17T04:10:03.685Z,0
2017-10-17T04:11:25.874Z,0
2017-10-17T04:12:47.444Z,0
2017-10-17T04:14:08.954Z,0
2017-10-17T04:15:31.474Z,0
2017-10-17T04:16:53.319Z,0
2017-10-17T04:18:15.486Z,0
2017-10-17T04:19:37.331Z,0
2017-10-17T04:20:59.191Z,0
2017-10-17T04:22:21.710Z,0
2017-10-17T04:23:43.553Z,0
2017-10-17T04:25:04.729Z,0
2017-10-17T04:26:26.253Z,0
2017-10-17T04:27:47.441Z,0
2017-10-17T04:29:09.613Z,0
2017-10-17T04:30:31.463Z,0
2017-10-17T04:31:52.995Z,0
2017-10-17T04:33:15.124Z,0
2017-10-17T04:34:37.366Z,0
2017-10-17T04:35:59.240Z,0
2017-10-17T04:37:20.767Z,0
2017-10-17T04:38:43.232Z,0
2017-10-17T04:40:05.093Z,0
2017-10-17T04:41:26.959Z,0
2017-10-17T04:42:49.152Z,0
2017-10-17T04:44:11.943Z,0
2017-10-17T04:45:33.446Z,0
2017-10-17T04:46:55.623Z,0
2017-10-17T04:48:17.810Z,0
2017-10-17T04:49:40.129Z,0
2017-10-17T04:51:02.023Z,0
2017-10-17T04:52:23.943Z,0
2017-10-17T04:53:46.113Z,0
2017-10-17T04:55:07.996Z,0
2017-10-17T04:56:30.158Z,0
2017-10-17T04:57:51.663Z,0
2017-10-17T04:59:13.490Z,0
2017-10-17T05:00:35.326Z,0
2017-10-17T05:01:57.165Z,0
2017-10-17T05:03:19.023Z,0
2017-10-17T05:04:40.545Z,0
2017-10-17T05:06:02.685Z,0
2017-10-17T05:07:24.860Z,0
2017-10-17T05:08:46.344Z,0
2017-10-17T05:10:08.280Z,0
2017-10-17T05:11:30.155Z,0
2017-10-17T05:12:52.333Z,0
2017-10-17T05:14:14.185Z,0
2017-10-17T05:15:36.046Z,0
2017-10-17T05:16:57.882Z,0
2017-10-17T05:18:19.732Z,0
2017-10-17T05:19:41.263Z,0
2017-10-17T05:21:03.437Z,0
2017-10-17T05:22:25.679Z,0
2017-10-17T05:23:47.498Z,0
2017-10-17T05:25:08.684Z,0
2017-10-17T05:26:30.911Z,0
2017-10-17T05:27:53.043Z,0
2017-10-17T05:29:14.561Z,0
2017-10-17T05:30:37.126Z,0
2017-10-17T05:31:59.313Z,0
2017-10-17T05:33:21.915Z,0
2017-10-17T05:34:44.497Z,0
2017-10-17T05:36:06.696Z,0
2017-10-17T05:37:28.887Z,0
2017-10-17T05:38:50.386Z,0
2017-10-17T05:40:12.335Z,0
2017-10-17T05:41:34.336Z,0
2017-10-17T05:42:56.873Z,0
2017-10-17T05:44:19.029Z,0
2017-10-17T05:45:41.508Z,0
2017-10-17T05:47:03.022Z,0
2017-10-17T05:48:24.878Z,0
2017-10-17T05:49:47.342Z,0
2017-10-17T05:51:08.523Z,0
2017-10-17T05:52:30.047Z,0
2017-10-17T05:53:52.565Z,0
2017-10-17T05:55:14.433Z,0
2017-10-17T05:56:35.933Z,0
2017-10-17T05:57:58.238Z,0
2017-10-17T05:59:20.079Z,0
2017-10-17T06:00:42.294Z,0
2017-10-17T06:02:04.472Z,0
2017-10-17T06:03:25.995Z,0
2017-10-17T06:04:47.710Z,5
2017-10-17T06:06:09.542Z,5
2017-10-17T06:07:31.723Z,5
2017-10-17T06:08:53.576Z,5
2017-10-17T06:10:16.135Z,5
2017-10-17T06:11:38.092Z,5
2017-10-17T06:12:59.924Z,5
2017-10-17T06:14:21.434Z,5
2017-10-17T06:15:43.945Z,5
2017-10-17T06:17:06.174Z,5
2017-10-17T06:18:28.363Z,10
2017-10-17T06:19:50.552Z,10
2017-10-17T06:21:12.411Z,10
2017-10-17T06:22:34.595Z,10
2017-10-17T06:23:56.783Z,10
2017-10-17T06:25:18.978Z,10
2017-10-17T06:26:41.556Z,10
2017-10-17T06:28:03.381Z,10
2017-10-17T06:29:25.817Z,10
2017-10-17T06:30:48.317Z,15
2017-10-17T06:32:10.164Z,15
2017-10-17T06:33:32.283Z,15
2017-10-17T06:34:53.805Z,15
2017-10-17T06:36:15.724Z,15
2017-10-17T06:37:37.610Z,20
2017-10-17T06:38:59.164Z,20
2017-10-17T06:40:21.685Z,20
2017-10-17T06:41:43.522Z,20
2017-10-17T06:43:05.726Z,25
2017-10-17T06:44:28.256Z,25
2017-10-17T06:45:50.854Z,25
2017-10-17T06:47:12.701Z,25
2017-10-17T06:48:34.648Z,25
2017-10-17T06:49:57.142Z,25
2017-10-17T06:51:19.300Z,25
2017-10-17T06:52:41.507Z,25
2017-10-17T06:54:04.009Z,30
2017-10-17T06:55:26.103Z,30
2017-10-17T06:56:48.283Z,30
2017-10-17T06:58:10.144Z,35
2017-10-17T06:59:32.658Z,35
2017-10-17T07:00:54.964Z,35
2017-10-17T07:02:16.856Z,40
2017-10-17T07:03:38.705Z,40
2017-10-17T07:05:01.274Z,40
2017-10-17T07:06:23.110Z,40
2017-10-17T07:07:45.619Z,40
2017-10-17T07:09:07.120Z,45
2017-10-17T07:10:29.734Z,45
2017-10-17T07:11:51.832Z,45
2017-10-17T07:13:13.672Z,45
2017-10-17T07:14:36.182Z,45
2017-10-17T07:15:57.694Z,50
2017-10-17T07:17:20.321Z,50
2017-10-17T07:18:42.505Z,50
2017-10-17T07:20:04.064Z,50
2017-10-17T07:21:26.243Z,55
2017-10-17T07:22:48.351Z,55
2017-10-17T07:24:11.074Z,55
2017-10-17T07:25:33.006Z,55
2017-10-17T07:26:54.883Z,55
2017-10-17T07:28:16.685Z,60
2017-10-17T07:29:38.188Z,60
2017-10-17T07:31:00.054Z,65
2017-10-17T07:32:22.219Z,65
2017-10-17T07:33:44.000Z,65
2017-10-17T07:35:06.344Z,65
2017-10-17T07:36:27.542Z,65
2017-10-17T07:37:49.821Z,70
2017-10-17T07:39:11.678Z,70
2017-10-17T07:40:33.177Z,70
2017-10-17T07:41:55.044Z,70
2017-10-17T07:43:16.964Z,75
2017-10-17T07:44:38.717Z,75
2017-10-17T07:46:01.354Z,80
2017-10-17T07:47:23.873Z,80
2017-10-17T07:48:45.842Z,80
2017-10-17T07:50:07.950Z,80
2017-10-17T07:51:30.132Z,85
2017-10-17T07:52:51.314Z,85
2017-10-17T07:54:13.506Z,85
2017-10-17T07:55:36.323Z,85
2017-10-17T07:56:57.895Z,90
2017-10-17T07:58:20.097Z,90
2017-10-17T07:59:42.297Z,95
2017-10-17T08:01:04.403Z,95
2017-10-17T08:02:26.572Z,95
2017-10-17T08:03:48.432Z,95
2017-10-17T08:05:10.945Z,95
2017-10-17T08:06:33.462Z,100
2017-10-17T08:07:55.992Z,100
2017-10-17T08:09:17.841Z,100
2017-10-17T08:10:39.345Z,100
2017-10-17T08:12:01.445Z,100
2017-10-17T08:13:22.635Z,105
2017-10-17T08:14:45.138Z,105
2017-10-17T08:16:06.994Z,105
2017-10-17T08:17:29.191Z,105
2017-10-17T08:18:51.703Z,105
2017-10-17T08:20:13.893Z,105
2017-10-17T08:21:36.423Z,105
2017-10-17T08:22:57.666Z,110
2017-10-17T08:24:19.649Z,110
2017-10-17T08:25:42.328Z,115
2017-10-17T08:27:04.844Z,120
2017-10-17T08:28:27.050Z,120
2017-10-17T08:29:48.300Z,125
2017-10-17T08:31:09.836Z,130
2017-10-17T08:32:31.359Z,130
2017-10-17T08:33:53.344Z,135
2017-10-17T08:35:15.982Z,135
2017-10-17T08:36:37.496Z,140
2017-10-17T08:38:00.035Z,140
2017-10-17T08:39:22.338Z,140
2017-10-17T08:40:43.844Z,145
2017-10-17T08:42:05.687Z,145
2017-10-17T08:43:27.864Z,145
2017-10-17T08:44:49.811Z,150
2017-10-17T08:46:12.333Z,150
2017-10-17T08:47:34.216Z,150
2017-10-17T08:48:56.075Z,150
2017-10-17T08:50:18.602Z,155
2017-10-17T08:51:40.905Z,155
2017-10-17T08:53:03.137Z,150
2017-10-17T08:54:25.057Z,150
2017-10-17T08:55:46.912Z,150
2017-10-17T08:57:08.516Z,155
2017-10-17T08:58:30.373Z,155
2017-10-17T08:59:51.923Z,155
2017-10-17T09:01:14.204Z,155
2017-10-17T09:02:36.138Z,155
2017-10-17T09:03:58.311Z,155
2017-10-17T09:05:19.825Z,155
2017-10-17T09:06:41.662Z,160
2017-10-17T09:08:03.158Z,160
2017-10-17T09:09:25.353Z,160
2017-10-17T09:10:47.679Z,160
2017-10-17T09:12:10.202Z,165
2017-10-17T09:13:32.056Z,165
2017-10-17T09:14:53.883Z,170
2017-10-17T09:16:16.119Z,170
2017-10-17T09:17:38.269Z,175
2017-10-17T09:19:00.814Z,170
2017-10-17T09:20:22.992Z,175
2017-10-17T09:21:44.842Z,175
2017-10-17T09:23:05.702Z,180
2017-10-17T09:24:27.967Z,180
2017-10-17T09:25:50.163Z,180
2017-10-17T09:27:12.715Z,175
2017-10-17T09:28:34.747Z,175
2017-10-17T09:29:56.999Z,175
2017-10-17T09:31:18.852Z,175
2017-10-17T09:32:40.371Z,175
2017-10-17T09:34:02.573Z,180
2017-10-17T09:35:24.415Z,180
2017-10-17T09:36:46.615Z,180
2017-10-17T09:38:08.786Z,180
2017-10-17T09:39:30.643Z,180
2017-10-17T09:40:52.837Z,180
2017-10-17T09:42:14.372Z,180
2017-10-17T09:43:36.643Z,180
2017-10-17T09:44:58.213Z,180
2017-10-17T09:46:19.727Z,180
2017-10-17T09:47:41.584Z,175
2017-10-17T09:49:03.452Z,175
2017-10-17T09:50:25.970Z,175
2017-10-17T09:51:48.188Z,175
2017-10-17T09:53:10.724Z,175
2017-10-17T09:54:32.904Z,175
2017-10-17T09:55:54.753Z,175
2017-10-17T09:57:16.811Z,175
2017-10-17T09:58:38.790Z,175
2017-10-17T10:00:00.975Z,175
2017-10-17T10:01:23.155Z,175
2017-10-17T10:02:45.696Z,175
2017-10-17T10:04:07.543Z,175
2017-10-17T10:05:30.121Z,175
2017-10-17T10:06:51.974Z,180
2017-10-17T10:08:14.153Z,180
2017-10-17T10:09:36.664Z,180
2017-10-17T10:10:58.313Z,180
2017-10-17T10:12:20.206Z,175
2017-10-17T10:13:42.055Z,175
2017-10-17T10:15:03.920Z,175
2017-10-17T10:16:26.512Z,170
2017-10-17T10:17:48.743Z,170
2017-10-17T10:19:10.935Z,165
2017-10-17T10:20:33.533Z,170
2017-10-17T10:21:55.387Z,170
2017-10-17T10:23:17.954Z,175
2017-10-17T10:24:40.143Z,175
2017-10-17T10:26:01.643Z,175
2017-10-17T10:27:23.830Z,170
2017-10-17T10:28:45.686Z,170
2017-10-17T10:30:07.972Z,170
2017-10-17T10:31:29.484Z,170
2017-10-17T10:32:51.344Z,175
2017-10-17T10:34:13.614Z,175
2017-10-17T10:35:35.488Z,175
2017-10-17T10:36:57.989Z,175
2017-10-17T10:38:19.525Z,175
2017-10-17T10:39:41.494Z,175
2017-10-17T10:41:03.799Z,185
2017-10-17T10:42:25.663Z,185
2017-10-17T10:43:47.851Z,180
2017-10-17T10:45:10.029Z,180
2017-10-17T10:46:32.240Z,180
2017-10-17T10:47:54.555Z,180
2017-10-17T10:49:16.412Z,185
2017-10-17T10:50:38.613Z,185
2017-10-17T10:52:00.818Z,190
2017-10-17T10:53:23.004Z,185
2017-10-17T10:54:45.523Z,185
2017-10-17T10:56:07.393Z,185
2017-10-17T10:57:28.273Z,185
2017-10-17T10:58:50.811Z,185
2017-10-17T11:00:13.000Z,185
2017-10-17T11:01:34.854Z,185
2017-10-17T11:02:57.065Z,185
2017-10-17T11:04:18.942Z,185
2017-10-17T11:05:40.905Z,185
2017-10-17T11:07:02.815Z,185
2017-10-17T11:08:24.760Z,185
2017-10-17T11:09:46.963Z,185
2017-10-17T11:11:08.156Z,185
2017-10-17T11:12:30.231Z,185
2017-10-17T11:13:52.771Z,185
2017-10-17T11:15:14.345Z,185
2017-10-17T11:16:36.554Z,180
2017-10-17T11:17:58.763Z,180
2017-10-17T11:19:21.452Z,180
2017-10-17T11:20:43.691Z,180
2017-10-17T11:22:05.945Z,175
2017-10-17T11:23:28.450Z,175
2017-10-17T11:24:50.309Z,175
2017-10-17T11:26:12.521Z,175
2017-10-17T11:27:34.708Z,175
2017-10-17T11:28:57.353Z,175
2017-10-17T11:30:18.886Z,180
2017-10-17T11:31:41.249Z,180
2017-10-17T11:33:03.102Z,180
2017-10-17T11:34:25.297Z,180
2017-10-17T11:35:47.184Z,180
2017-10-17T11:37:09.774Z,180
2017-10-17T11:38:31.937Z,180
2017-10-17T11:39:53.781Z,180
2017-10-17T11:41:15.971Z,180
2017-10-17T11:42:38.163Z,180
2017-10-17T11:44:00.362Z,180
2017-10-17T11:45:22.906Z,180
2017-10-17T11:46:45.465Z,180
2017-10-17T11:48:07.984Z,180
2017-10-17T11:49:29.541Z,180
2017-10-17T11:50:51.783Z,175
2017-10-17T11:52:14.310Z,175
2017-10-17T11:53:35.852Z,175
2017-10-17T11:54:58.385Z,170
2017-10-17T11:56:20.550Z,170
2017-10-17T11:57:42.474Z,170
2017-10-17T11:59:04.678Z,170
2017-10-17T12:00:26.540Z,170
2017-10-17T12:01:49.051Z,170
2017-10-17T12:03:11.565Z,170
2017-10-17T12:04:32.430Z,170
2017-10-17T12:05:54.437Z,170
2017-10-17T12:07:16.641Z,170
2017-10-17T12:08:39.354Z,165
2017-10-17T12:10:01.233Z,165
2017-10-17T12:11:22.748Z,160
2017-10-17T12:12:44.673Z,160
2017-10-17T12:14:05.856Z,160
2017-10-17T12:15:27.716Z,155
2017-10-17T12:16:49.227Z,155
2017-10-17T12:18:11.333Z,155
2017-10-17T12:19:33.518Z,155
2017-10-17T12:20:56.046Z,160
2017-10-17T12:22:17.902Z,160
2017-10-17T12:23:40.342Z,160
2017-10-17T12:25:02.871Z,160
2017-10-17T12:26:25.064Z,160
2017-10-17T12:27:47.572Z,155
2017-10-17T12:29:09.432Z,155
2017-10-17T12:30:31.703Z,155
2017-10-17T12:31:53.605Z,150
2017-10-17T12:33:15.904Z,150
2017-10-17T12:34:38.420Z,145
2017-10-17T12:36:00.609Z,145
2017-10-17T12:37:22.893Z,145
2017-10-17T12:38:44.404Z,145
2017-10-17T12:40:06.552Z,145
2017-10-17T12:41:28.744Z,145
2017-10-17T12:42:51.256Z,145
2017-10-17T12:44:13.784Z,140
2017-10-17T12:45:35.654Z,140
2017-10-17T12:46:57.542Z,145
2017-10-17T12:48:19.427Z,145
2017-10-17T12:49:41.666Z,145
2017-10-17T12:51:03.530Z,145
2017-10-17T12:52:25.068Z,145
2017-10-17T12:53:47.795Z,140
2017-10-17T12:55:09.973Z,140
2017-10-17T12:56:31.544Z,140
2017-10-17T12:57:53.085Z,140
2017-10-17T12:59:15.627Z,145
2017-10-17T13:00:37.593Z,140
2017-10-17T13:01:59.869Z,140
2017-10-17T13:03:22.425Z,130
2017-10-17T13:04:44.264Z,125
2017-10-17T13:06:06.143Z,125
2017-10-17T13:07:28.365Z,130
2017-10-17T13:08:50.221Z,130
2017-10-17T13:10:12.085Z,130
2017-10-17T13:11:34.624Z,130
2017-10-17T13:12:56.223Z,130
2017-10-17T13:14:17.737Z,130
2017-10-17T13:15:40.279Z,130
2017-10-17T13:17:02.814Z,125
2017-10-17T13:18:25.344Z,125
2017-10-17T13:19:47.554Z,120
2017-10-17T13:21:10.103Z,120
2017-10-17T13:22:31.619Z,125
2017-10-17T13:23:54.453Z,120
2017-10-17T13:25:17.073Z,120
2017-10-17T13:26:38.576Z,120
2017-10-17T13:28:00.420Z,120
2017-10-17T13:29:22.607Z,120
2017-10-17T13:30:45.146Z,120
2017-10-17T13:32:07.322Z,120
2017-10-17T13:33:29.173Z,120
2017-10-17T13:34:51.997Z,120
2017-10-17T13:36:13.584Z,120
2017-10-17T13:37:36.124Z,120
2017-10-17T13:38:57.990Z,115
2017-10-17T13:40:19.819Z,115
2017-10-17T13:41:41.363Z,115
2017-10-17T13:43:02.872Z,110
2017-10-17T13:44:24.400Z,105
2017-10-17T13:45:46.323Z,100
2017-10-17T13:47:08.833Z,95
2017-10-17T13:48:31.013Z,90
2017-10-17T13:49:53.195Z,85
2017-10-17T13:51:15.067Z,85
2017-10-17T13:52:37.594Z,85
2017-10-17T13:53:59.924Z,85
2017-10-17T13:55:22.115Z,85
2017-10-17T13:56:44.652Z,85
2017-10-17T13:58:07.294Z,85
2017-10-17T13:59:29.484Z,85
2017-10-17T14:00:52.046Z,85
2017-10-17T14:02:14.244Z,85
2017-10-17T14:03:36.790Z,85
2017-10-17T14:04:58.980Z,85
2017-10-17T14:06:20.953Z,85
2017-10-17T14:07:42.810Z,85
2017-10-17T14:09:05.033Z,80
2017-10-17T14:10:26.915Z,80
2017-10-17T14:11:49.434Z,80
2017-10-17T14:13:12.015Z,80
2017-10-17T14:14:34.211Z,75
2017-10-17T14:15:56.968Z,75
2017-10-17T14:17:19.210Z,75
2017-10-17T14:18:41.823Z,75
2017-10-17T14:20:04.088Z,75
2017-10-17T14:21:26.344Z,75
2017-10-17T14:22:49.014Z,75
2017-10-17T14:24:11.846Z,70
2017-10-17T14:25:34.396Z,70
2017-10-17T14:26:56.923Z,70
2017-10-17T14:28:19.505Z,70
2017-10-17T14:29:41.693Z,70
2017-10-17T14:31:03.891Z,70
2017-10-17T14:32:26.203Z,65
2017-10-17T14:33:48.493Z,65
2017-10-17T14:35:10.688Z,65
2017-10-17T14:36:32.889Z,60
2017-10-17T14:37:54.734Z,60
2017-10-17T14:39:16.937Z,60
2017-10-17T14:40:39.145Z,55
2017-10-17T14:42:01.026Z,55
2017-10-17T14:43:23.603Z,50
2017-10-17T14:44:45.866Z,50
2017-10-17T14:46:08.660Z,45
2017-10-17T14:47:31.193Z,45
2017-10-17T14:48:53.380Z,45
2017-10-17T14:50:15.652Z,40
2017-10-17T14:51:37.536Z,40
2017-10-17T14:52:59.571Z,40
2017-10-17T14:54:22.100Z,35
2017-10-17T14:55:44.293Z,35
2017-10-17T14:57:06.922Z,35
2017-10-17T14:58:28.454Z,35
2017-10-17T14:59:50.353Z,35
2017-10-17T15:01:12.553Z,35
2017-10-17T15:02:35.075Z,35
2017-10-17T15:03:57.730Z,35
2017-10-17T15:05:20.036Z,35
2017-10-17T15:06:42.614Z,35
2017-10-17T15:08:04.481Z,35
2017-10-17T15:09:26.705Z,35
2017-10-17T15:10:49.233Z,35
2017-10-17T15:12:11.618Z,30
2017-10-17T15:13:34.164Z,30
2017-10-17T15:14:56.355Z,30
2017-10-17T15:16:18.925Z,30
2017-10-17T15:17:41.476Z,30
2017-10-17T15:19:04.003Z,30
2017-10-17T15:20:25.874Z,25
2017-10-17T15:21:48.072Z,25
2017-10-17T15:23:09.951Z,25
2017-10-17T15:24:32.521Z,25
2017-10-17T15:25:54.435Z,25
2017-10-17T15:27:16.784Z,25
2017-10-17T15:28:38.994Z,25
2017-10-17T15:30:00.985Z,25
2017-10-17T15:31:23.538Z,25
2017-10-17T15:32:45.394Z,25
2017-10-17T15:34:07.623Z,25
2017-10-17T15:35:30.135Z,25
2017-10-17T15:36:52.054Z,20
2017-10-17T15:38:14.255Z,20
2017-10-17T15:39:36.891Z,20
2017-10-17T15:40:58.785Z,20
2017-10-17T15:42:20.961Z,15
2017-10-17T15:43:43.149Z,15
2017-10-17T15:45:05.102Z,15
2017-10-17T15:46:27.325Z,15
2017-10-17T15:47:49.174Z,15
2017-10-17T15:49:11.024Z,15
2017-10-17T15:50:33.233Z,15
2017-10-17T15:51:55.990Z,15
2017-10-17T15:53:18.548Z,15
2017-10-17T15:54:40.806Z,10
2017-10-17T15:56:03.023Z,10
2017-10-17T15:57:24.933Z,10
2017-10-17T15:58:47.145Z,10
2017-10-17T16:00:09.771Z,10
2017-10-17T16:01:32.305Z,10
2017-10-17T16:02:54.178Z,10
2017-10-17T16:04:16.403Z,10
2017-10-17T16:05:38.623Z,10
2017-10-17T16:07:00.480Z,5
2017-10-17T16:08:23.272Z,5
2017-10-17T16:09:45.862Z,5
2017-10-17T16:11:08.395Z,5
2017-10-17T16:12:31.342Z,5
2017-10-17T16:13:53.863Z,5
2017-10-17T16:15:16.457Z,5
2017-10-17T16:16:38.361Z,5
2017-10-17T16:18:00.966Z,0
2017-10-17T16:19:23.305Z,0
2017-10-17T16:20:45.899Z,0
2017-10-17T16:22:08.277Z,0
2017-10-17T16:23:29.877Z,0
2017-10-17T16:24:52.239Z,0
2017-10-17T16:26:14.539Z,0
2017-10-17T16:27:36.744Z,0
2017-10-17T16:28:58.373Z,0
2017-10-17T16:30:20.702Z,0
2017-10-17T16:31:42.566Z,0
2017-10-17T16:33:04.483Z,0
2017-10-17T16:34:26.026Z,0
2017-10-17T16:35:48.661Z,0
2017-10-17T16:37:10.851Z,0
2017-10-17T16:38:33.096Z,0
2017-10-17T16:39:55.648Z,0
2017-10-17T16:41:18.191Z,0
2017-10-17T16:42:39.474Z,0
2017-10-17T16:44:01.667Z,0
2017-10-17T16:45:23.878Z,0
2017-10-17T16:46:46.374Z,0
2017-10-17T16:48:08.668Z,0
2017-10-17T16:49:30.984Z,0
2017-10-17T16:50:53.467Z,0
2017-10-17T16:52:15.775Z,0
2017-10-17T16:53:38.001Z,0
2017-10-17T16:54:59.855Z,0
2017-10-17T16:56:22.155Z,0
2017-10-17T16:57:44.714Z,0
2017-10-17T16:59:07.268Z,0
2017-10-17T17:00:29.805Z,0
2017-10-17T17:01:52.343Z,0
2017-10-17T17:03:14.883Z,0
2017-10-17T17:04:37.484Z,0
2017-10-17T17:06:00.043Z,0
2017-10-17T17:07:21.587Z,0
2017-10-17T17:08:43.462Z,0
2017-10-17T17:10:05.465Z,0
2017-10-17T17:11:27.780Z,0
2017-10-17T17:12:49.985Z,0
2017-10-17T17:14:12.914Z,0
2017-10-17T17:15:35.479Z,0
2017-10-17T17:16:57.708Z,0
2017-10-17T17:18:19.948Z,0
2017-10-17T17:19:42.846Z,0
2017-10-17T17:21:05.068Z,0
2017-10-17T17:22:27.705Z,0
2017-10-17T17:23:50.414Z,0
2017-10-17T17:25:12.643Z,0
2017-10-17T17:26:35.176Z,0
2017-10-17T17:27:57.701Z,0
2017-10-17T17:29:19.284Z,0
2017-10-17T17:30:41.644Z,0
2017-10-17T17:32:03.590Z,0
2017-10-17T17:33:25.872Z,0
2017-10-17T17:34:48.449Z,0
2017-10-17T17:36:09.986Z,0
2017-10-17T17:37:32.570Z,0
2017-10-17T17:38:55.187Z,0
2017-10-17T17:40:17.047Z,0
2017-10-17T17:41:39.620Z,0
2017-10-17T17:43:01.868Z,0
2017-10-17T17:44:24.090Z,0
2017-10-17T17:45:46.319Z,0
2017-10-17T17:47:08.906Z,0
2017-10-17T17:48:31.531Z,0
2017-10-17T17:49:53.118Z,0
2017-10-17T17:51:15.734Z,0
2017-10-17T17:52:37.926Z,0
2017-10-17T17:54:00.366Z,0
2017-10-17T17:55:22.926Z,0
2017-10-17T17:56:44.806Z,0
2017-10-17T17:58:07.408Z,0
2017-10-17T17:59:29.647Z,0
2017-10-17T18:00:51.855Z,0
2017-10-17T18:02:14.106Z,0
2017-10-17T18:03:35.646Z,0
2017-10-17T18:04:57.852Z,0
2017-10-17T18:06:19.714Z,0
2017-10-17T18:07:41.966Z,0
2017-10-17T18:09:04.468Z,0
2017-10-17T18:10:26.983Z,0
2017-10-17T18:11:49.567Z,0
2017-10-17T18:13:11.805Z,0
2017-10-17T18:14:33.661Z,0
2017-10-17T18:15:56.207Z,0
2017-10-17T18:17:18.436Z,0
2017-10-17T18:18:40.996Z,0
2017-10-17T18:20:03.568Z,0
2017-10-17T18:21:25.793Z,0
2017-10-17T18:22:48.423Z,0
2017-10-17T18:24:09.976Z,0
2017-10-17T18:25:32.518Z,0
2017-10-17T18:26:54.716Z,0
2017-10-17T18:28:16.638Z,0
2017-10-17T18:29:38.622Z,0
2017-10-17T18:31:00.523Z,0
2017-10-17T18:32:23.065Z,0
2017-10-17T18:33:44.923Z,0
2017-10-17T18:35:07.509Z,0
2017-10-17T18:36:29.465Z,0
2017-10-17T18:37:52.003Z,0
2017-10-17T18:39:13.966Z,0
2017-10-17T18:40:36.475Z,0
2017-10-17T18:41:58.747Z,0
2017-10-17T18:43:20.975Z,0
2017-10-17T18:44:43.514Z,0
2017-10-17T18:46:05.396Z,0
2017-10-17T18:47:27.627Z,0
2017-10-17T18:48:49.873Z,0
2017-10-17T18:50:12.093Z,0
2017-10-17T18:51:34.874Z,0
2017-10-17T18:52:57.130Z,0
2017-10-17T18:54:19.775Z,0
2017-10-17T18:55:41.669Z,0
2017-10-17T18:57:04.252Z,0
2017-10-17T18:58:27.034Z,0
2017-10-17T18:59:49.614Z,0
2017-10-17T19:01:11.847Z,0
